createdAt,value
2017-10-04T00:33:37.791Z,0.00
2017-10-04T00:38:02.756Z,0.00
2017-10-04T00:43:04.423Z,0.00
2017-10-04T00:44:29.289Z,0.00
2017-10-04T00:46:51.109Z,0.00
2017-10-04T00:47:29.285Z,0.00
2017-10-04T00:48:29.586Z,0.00
2017-10-04T01:20:20.512Z,0.00
2017-10-04T01:24:01.002Z,0.00
2017-10-04T01:25:06.714Z,0.00
2017-10-04T01:25:25.074Z,0.00
2017-10-04T01:26:01.210Z,0.00
2017-10-04T01:28:35.116Z,0.00
2017-10-04T01:36:56.426Z,0.00
2017-10-04T01:37:18.287Z,0.00
2017-10-04T01:39:41.743Z,0.00
2017-10-04T02:48:54.549Z,0.00
2017-10-04T02:57:27.289Z,0.00
2017-10-04T02:58:11.242Z,0.00
2017-10-04T02:59:13.366Z,0.00
2017-10-04T03:00:11.261Z,0.00
2017-10-04T03:01:05.561Z,0.00
2017-10-04T03:07:57.222Z,0.00
2017-10-04T03:08:54.182Z,532.00
2017-10-04T03:10:20.831Z,532.00
2017-10-04T03:11:18.380Z,532.00
2017-10-04T03:12:07.378Z,532.00
2017-10-04T03:23:02.090Z,532.00
2017-10-04T03:32:09.228Z,532.00
2017-10-04T03:32:31.770Z,532.00
2017-10-04T03:33:19.869Z,532.00
2017-10-04T03:33:53.333Z,532.00
2017-10-04T03:34:16.634Z,532.00
2017-10-04T03:34:42.948Z,532.00
2017-10-04T03:35:13.963Z,532.00
2017-10-04T03:35:42.245Z,532.00
2017-10-04T03:36:32.317Z,532.00
2017-10-04T03:36:50.274Z,532.00
2017-10-04T03:37:13.979Z,532.00
2017-10-04T03:37:30.859Z,532.00
2017-10-04T03:37:52.410Z,532.00
2017-10-04T03:38:19.267Z,532.00
2017-10-04T03:38:32.837Z,532.00
2017-10-04T03:39:18.738Z,532.00
2017-10-04T03:39:45.853Z,532.00
2017-10-04T03:39:53.469Z,532.00
2017-10-04T03:40:22.483Z,532.00
2017-10-04T03:40:38.126Z,532.00
2017-10-04T03:41:55.183Z,532.00
2017-10-04T03:42:39.905Z,0.00
2017-10-04T03:46:40.178Z,0.00
2017-10-04T03:47:51.227Z,0.00
2017-10-04T03:54:13.568Z,0.00
2017-10-04T04:03:07.931Z,0.00
2017-10-04T04:07:02.725Z,0.00
2017-10-04T04:07:32.473Z,0.00
2017-10-04T04:07:51.816Z,0.00
2017-10-04T04:09:18.741Z,0.00
2017-10-04T04:10:23.273Z,0.00
2017-10-04T04:11:18.845Z,0.00
2017-10-04T04:11:47.649Z,0.00
2017-10-04T04:12:14.291Z,0.00
2017-10-04T04:13:22.953Z,0.00
2017-10-04T04:13:31.181Z,0.00
2017-10-04T04:13:50.166Z,0.00
2017-10-04T04:14:12.799Z,0.00
2017-10-04T04:14:25.792Z,0.00
2017-10-04T04:16:36.549Z,0.00
2017-10-04T04:16:54.294Z,0.00
2017-10-04T04:19:33.681Z,0.00
2017-10-04T04:19:42.586Z,0.00
2017-10-04T04:20:28.918Z,0.00
2017-10-04T04:20:58.235Z,0.00
2017-10-04T04:21:48.274Z,0.00
2017-10-04T04:23:11.445Z,0.00
2017-10-04T04:38:36.918Z,0.00
2017-10-04T05:07:00.912Z,8.00
2017-10-04T05:11:19.933Z,17.00
2017-10-04T05:12:46.877Z,523.00
2017-10-04T05:13:04.047Z,523.00
2017-10-04T05:13:12.261Z,523.00
2017-10-04T05:13:25.650Z,521.00
2017-10-04T05:13:34.349Z,521.00
2017-10-04T05:13:42.493Z,521.00
2017-10-04T05:13:50.629Z,521.00
2017-10-04T05:13:58.766Z,521.00
2017-10-04T05:14:06.893Z,521.00
2017-10-04T05:14:15.034Z,520.00
2017-10-04T05:14:23.177Z,520.00
2017-10-04T05:14:31.321Z,520.00
2017-10-04T05:14:39.457Z,520.00
2017-10-04T05:14:53.340Z,520.00
2017-10-04T05:15:01.546Z,518.00
2017-10-04T05:15:09.690Z,518.00
2017-10-04T05:15:17.826Z,518.00
2017-10-04T05:15:25.960Z,518.00
2017-10-04T05:15:45.508Z,516.00
2017-10-04T05:15:53.692Z,513.00
2017-10-04T05:16:01.589Z,516.00
2017-10-04T05:16:09.716Z,516.00
2017-10-04T05:16:25.109Z,514.00
2017-10-04T05:16:33.423Z,514.00
2017-10-04T05:16:41.564Z,514.00
2017-10-04T05:16:49.693Z,513.00
2017-10-04T05:16:57.844Z,513.00
2017-10-04T05:17:05.979Z,513.00
2017-10-04T05:17:18.934Z,511.00
2017-10-04T05:17:27.048Z,511.00
2017-10-04T05:17:36.790Z,509.00
2017-10-04T05:17:44.920Z,509.00
2017-10-04T05:17:59.461Z,509.00
2017-10-04T05:18:07.594Z,507.00
2017-10-04T05:18:15.743Z,507.00
2017-10-04T05:18:23.870Z,506.00
2017-10-04T05:18:32.009Z,506.00
2017-10-04T05:18:40.146Z,504.00
2017-10-04T05:18:48.289Z,502.00
2017-10-04T05:18:56.430Z,501.00
2017-10-04T05:19:04.574Z,499.00
2017-10-04T05:19:12.702Z,497.00
2017-10-04T05:19:20.838Z,495.00
2017-10-04T05:19:28.973Z,492.00
2017-10-04T05:19:37.101Z,490.00
2017-10-04T05:19:45.242Z,487.00
2017-10-04T05:19:53.385Z,485.00
2017-10-04T05:20:30.338Z,476.00
2017-10-04T05:20:40.069Z,475.00
2017-10-04T05:20:49.797Z,475.00
2017-10-04T05:20:57.933Z,475.00
2017-10-04T05:21:06.074Z,475.00
2017-10-04T05:21:14.221Z,475.00
2017-10-04T05:21:22.346Z,476.00
2017-10-04T05:21:30.487Z,476.00
2017-10-04T05:21:38.634Z,478.00
2017-10-04T05:21:46.765Z,478.00
2017-10-04T05:21:54.910Z,480.00
2017-10-04T05:22:03.041Z,481.00
2017-10-04T05:22:11.178Z,483.00
2017-10-04T05:22:25.738Z,485.00
2017-10-04T05:22:41.857Z,487.00
2017-10-04T05:22:49.981Z,487.00
2017-10-04T05:23:06.129Z,488.00
2017-10-04T05:23:14.269Z,488.00
2017-10-04T05:23:22.394Z,487.00
2017-10-04T05:23:30.546Z,487.00
2017-10-04T05:23:38.676Z,487.00
2017-10-04T05:23:46.809Z,487.00
2017-10-04T05:23:54.964Z,487.00
2017-10-04T05:24:03.081Z,485.00
2017-10-04T05:24:11.229Z,485.00
2017-10-04T05:24:19.368Z,485.00
2017-10-04T05:24:27.509Z,485.00
2017-10-04T05:24:35.649Z,483.00
2017-10-04T05:24:43.765Z,483.00
2017-10-04T05:24:51.937Z,483.00
2017-10-04T05:25:00.053Z,483.00
2017-10-04T05:25:08.187Z,483.00
2017-10-04T05:25:16.334Z,481.00
2017-10-04T05:25:24.461Z,481.00
2017-10-04T05:25:32.605Z,481.00
2017-10-04T05:25:55.294Z,480.00
2017-10-04T05:26:27.409Z,478.00
2017-10-04T05:26:35.583Z,478.00
2017-10-04T05:27:30.102Z,475.00
2017-10-04T05:27:47.834Z,475.00
2017-10-04T05:27:55.964Z,473.00
2017-10-04T05:28:04.101Z,473.00
2017-10-04T05:28:12.238Z,473.00
2017-10-04T05:28:20.365Z,473.00
2017-10-04T05:28:28.517Z,470.00
2017-10-04T05:28:46.530Z,192.00
2017-10-04T05:29:12.945Z,467.00
2017-10-04T05:29:21.149Z,464.00
2017-10-04T05:30:07.697Z,459.00
2017-10-04T05:30:17.428Z,459.00
2017-10-04T05:31:16.726Z,450.00
2017-10-04T05:31:24.329Z,450.00
2017-10-04T05:31:32.465Z,448.00
2017-10-04T05:31:43.818Z,445.00
2017-10-04T05:31:51.954Z,445.00
2017-10-04T05:32:00.081Z,442.00
2017-10-04T05:32:12.421Z,439.00
2017-10-04T05:32:26.989Z,439.00
2017-10-04T05:32:41.082Z,251.00
2017-10-04T05:32:49.237Z,434.00
2017-10-04T05:32:57.377Z,431.00
2017-10-04T05:33:05.521Z,431.00
2017-10-04T05:33:13.658Z,428.00
2017-10-04T05:33:21.781Z,425.00
2017-10-04T05:33:29.921Z,425.00
2017-10-04T05:33:38.062Z,422.00
2017-10-04T05:33:46.193Z,420.00
2017-10-04T05:33:54.333Z,417.00
2017-10-04T05:34:02.482Z,417.00
2017-10-04T05:34:10.623Z,414.00
2017-10-04T05:34:18.745Z,411.00
2017-10-04T05:34:26.889Z,408.00
2017-10-04T05:34:35.025Z,406.00
2017-10-04T05:34:43.177Z,403.00
2017-10-04T05:35:05.846Z,394.00
2017-10-04T05:35:13.973Z,389.00
2017-10-04T05:35:22.128Z,386.00
2017-10-04T05:35:30.261Z,383.00
2017-10-04T05:35:38.393Z,378.00
2017-10-04T05:35:46.526Z,375.00
2017-10-04T05:35:54.661Z,368.00
2017-10-04T05:36:02.801Z,365.00
2017-10-04T05:36:10.953Z,358.00
2017-10-04T05:36:19.089Z,354.00
2017-10-04T05:36:27.213Z,348.00
2017-10-04T05:36:35.353Z,344.00
2017-10-04T05:36:43.489Z,337.00
2017-10-04T05:36:51.829Z,495.00
2017-10-04T05:36:59.765Z,495.00
2017-10-04T05:37:07.913Z,495.00
2017-10-04T05:37:16.041Z,495.00
2017-10-04T05:37:24.188Z,310.00
2017-10-04T05:37:32.312Z,303.00
2017-10-04T05:37:40.729Z,495.00
2017-10-04T05:37:48.608Z,495.00
2017-10-04T05:37:56.734Z,495.00
2017-10-04T05:38:49.850Z,495.00
2017-10-04T05:38:59.461Z,495.00
2017-10-04T05:39:19.501Z,495.00
2017-10-04T05:39:28.093Z,495.00
2017-10-04T05:39:36.037Z,495.00
2017-10-04T05:39:44.385Z,495.00
2017-10-04T05:39:52.516Z,495.00
2017-10-04T05:40:00.458Z,495.00
2017-10-04T05:40:08.597Z,186.00
2017-10-04T05:40:16.733Z,182.00
2017-10-04T05:40:32.313Z,170.00
2017-10-04T05:40:52.182Z,154.00
2017-10-04T05:40:59.483Z,495.00
2017-10-04T05:41:07.626Z,495.00
2017-10-04T05:41:15.764Z,495.00
2017-10-04T05:41:23.910Z,495.00
2017-10-04T05:41:32.046Z,495.00
2017-10-04T05:41:40.186Z,495.00
2017-10-04T05:41:48.312Z,495.00
2017-10-04T05:41:56.450Z,495.00
2017-10-04T05:42:04.595Z,495.00
2017-10-04T05:42:12.734Z,495.00
2017-10-04T05:42:20.872Z,495.00
2017-10-04T05:42:29.006Z,495.00
2017-10-04T05:42:37.152Z,495.00
2017-10-04T05:42:45.357Z,495.00
2017-10-04T05:42:53.423Z,495.00
2017-10-04T05:43:01.566Z,495.00
2017-10-04T05:43:09.705Z,495.00
2017-10-04T05:43:17.817Z,495.00
2017-10-04T05:43:25.962Z,495.00
2017-10-04T05:43:34.107Z,495.00
2017-10-04T05:43:42.262Z,495.00
2017-10-04T05:43:50.389Z,495.00
2017-10-04T05:43:58.533Z,495.00
2017-10-04T05:44:06.881Z,57.00
2017-10-04T05:44:14.784Z,55.00
2017-10-04T05:44:22.913Z,54.00
2017-10-04T05:44:31.057Z,52.00
2017-10-04T05:44:39.209Z,50.00
2017-10-04T05:44:47.345Z,48.00
2017-10-04T05:44:55.469Z,0.00
2017-10-04T05:45:03.609Z,44.00
2017-10-04T05:45:11.769Z,495.00
2017-10-04T05:45:26.137Z,495.00
2017-10-04T05:45:33.849Z,495.00
2017-10-04T05:45:41.988Z,495.00
2017-10-04T05:45:50.129Z,495.00
2017-10-04T05:45:58.261Z,495.00
2017-10-04T05:46:06.397Z,495.00
2017-10-04T05:46:14.537Z,495.00
2017-10-04T05:46:22.681Z,495.00
2017-10-04T05:46:30.817Z,495.00
2017-10-04T05:46:38.961Z,495.00
2017-10-04T05:46:47.081Z,495.00
2017-10-04T05:46:55.424Z,495.00
2017-10-04T05:47:08.823Z,495.00
2017-10-04T05:47:17.349Z,495.00
2017-10-04T05:47:25.465Z,495.00
2017-10-04T05:47:33.621Z,495.00
2017-10-04T05:47:41.760Z,495.00
2017-10-04T05:47:49.907Z,495.00
2017-10-04T05:47:58.013Z,495.00
2017-10-04T05:48:06.153Z,495.00
2017-10-04T05:48:14.302Z,495.00
2017-10-04T05:48:22.442Z,495.00
2017-10-04T05:48:30.581Z,495.00
2017-10-04T05:48:38.709Z,0.00
2017-10-04T05:48:47.077Z,10.00
2017-10-04T05:48:55.228Z,10.00
2017-10-04T05:49:03.376Z,10.00
2017-10-04T05:49:11.501Z,10.00
2017-10-04T05:49:19.638Z,10.00
2017-10-04T05:49:27.789Z,10.00
2017-10-04T05:49:35.657Z,10.00
2017-10-04T05:49:43.801Z,10.00
2017-10-04T05:49:52.177Z,495.00
2017-10-04T05:50:05.331Z,495.00
2017-10-04T05:50:14.057Z,495.00
2017-10-04T05:50:22.197Z,495.00
2017-10-04T05:50:30.321Z,0.00
2017-10-04T05:50:38.457Z,495.00
2017-10-04T05:50:46.598Z,495.00
2017-10-04T05:50:54.991Z,9.00
2017-10-04T05:51:03.109Z,9.00
2017-10-04T05:51:11.250Z,9.00
2017-10-04T05:51:19.390Z,9.00
2017-10-04T05:51:27.522Z,9.00
2017-10-04T05:51:35.656Z,9.00
2017-10-04T05:51:50.789Z,9.00
2017-10-04T05:51:59.121Z,9.00
2017-10-04T05:52:07.253Z,9.00
2017-10-04T05:52:15.392Z,9.00
2017-10-04T05:52:23.540Z,9.00
2017-10-04T05:52:31.680Z,9.00
2017-10-04T05:52:39.822Z,9.00
2017-10-04T05:52:47.965Z,9.00
2017-10-04T05:52:56.085Z,9.00
2017-10-04T05:53:04.226Z,9.00
2017-10-04T05:53:12.370Z,8.00
2017-10-04T05:53:20.509Z,8.00
2017-10-04T05:53:28.624Z,8.00
2017-10-04T05:53:36.775Z,8.00
2017-10-04T05:53:44.901Z,8.00
2017-10-04T05:53:53.245Z,8.00
2017-10-04T05:54:01.189Z,8.00
2017-10-04T05:54:09.321Z,8.00
2017-10-04T05:54:17.460Z,8.00
2017-10-04T05:54:25.593Z,1072.00
2017-10-04T05:54:33.928Z,1078.00
2017-10-04T05:54:41.870Z,1082.00
2017-10-04T05:54:50.002Z,1092.00
2017-10-04T05:54:58.346Z,1096.00
2017-10-04T05:55:06.473Z,1102.00
2017-10-04T05:55:14.413Z,1109.00
2017-10-04T05:55:22.565Z,1115.00
2017-10-04T05:55:30.692Z,1122.00
2017-10-04T05:55:39.037Z,1131.00
2017-10-04T05:55:46.986Z,1137.00
2017-10-04T05:55:55.109Z,1146.00
2017-10-04T05:56:03.244Z,1153.00
2017-10-04T05:56:11.372Z,1162.00
2017-10-04T05:56:19.509Z,1167.00
2017-10-04T05:56:30.909Z,1179.00
2017-10-04T05:56:38.424Z,1184.00
2017-10-04T05:56:46.574Z,1193.00
2017-10-04T05:56:54.708Z,1201.00
2017-10-04T05:57:02.841Z,1208.00
2017-10-04T05:57:14.177Z,1220.00
2017-10-04T05:57:27.109Z,1236.00
2017-10-04T05:57:35.245Z,1246.00
2017-10-04T05:57:43.382Z,1252.00
2017-10-04T05:57:51.534Z,1264.00
2017-10-04T05:58:10.862Z,1289.00
2017-10-04T05:58:18.993Z,1298.00
2017-10-04T05:58:46.349Z,1338.00
2017-10-04T05:59:07.289Z,1369.00
2017-10-04T05:59:17.025Z,1380.00
2017-10-04T05:59:25.169Z,1399.00
2017-10-04T05:59:39.042Z,1420.00
2017-10-04T05:59:47.265Z,1435.00
2017-10-04T05:59:55.392Z,1450.00
2017-10-04T06:00:03.534Z,1467.00
2017-10-04T06:00:11.660Z,1483.00
2017-10-04T06:00:23.014Z,1505.00
2017-10-04T06:00:36.138Z,1531.00
2017-10-04T06:00:44.084Z,1545.00
2017-10-04T06:01:06.611Z,1594.00
2017-10-04T06:01:14.930Z,1613.00
2017-10-04T06:01:22.914Z,1630.00
2017-10-04T06:01:31.034Z,1651.00
2017-10-04T06:01:39.170Z,1673.00
2017-10-04T06:01:47.306Z,1695.00
2017-10-04T06:01:55.442Z,1717.00
2017-10-04T06:02:03.572Z,1738.00
2017-10-04T06:02:11.726Z,1761.00
2017-10-04T06:02:20.044Z,1785.00
2017-10-04T06:02:27.993Z,1810.00
2017-10-04T06:02:39.892Z,1849.00
2017-10-04T06:02:48.501Z,1875.00
2017-10-04T06:02:56.646Z,1903.00
2017-10-04T06:03:04.769Z,1935.00
2017-10-04T06:03:12.905Z,1964.00
2017-10-04T06:03:21.049Z,1992.00
2017-10-04T06:03:29.189Z,2026.00
2017-10-04T06:03:37.325Z,2058.00
2017-10-04T06:03:45.465Z,2086.00
2017-10-04T06:03:53.595Z,2122.00
2017-10-04T06:04:01.734Z,2154.00
2017-10-04T06:04:09.865Z,2183.00
2017-10-04T06:04:18.009Z,2214.00
2017-10-04T06:04:26.159Z,2240.00
2017-10-04T06:04:34.296Z,2272.00
2017-10-04T06:04:42.417Z,2301.00
2017-10-04T06:04:50.557Z,2330.00
2017-10-04T06:04:58.693Z,2362.00
2017-10-04T06:05:06.833Z,2388.00
2017-10-04T06:05:14.976Z,2418.00
2017-10-04T06:05:23.114Z,2448.00
2017-10-04T06:05:31.249Z,2475.00
2017-10-04T06:05:39.381Z,2499.00
2017-10-04T06:05:47.518Z,2525.00
2017-10-04T06:06:00.405Z,2565.00
2017-10-04T06:06:08.017Z,2589.00
2017-10-04T06:06:19.409Z,2621.00
2017-10-04T06:06:26.922Z,2648.00
2017-10-04T06:06:41.826Z,2696.00
2017-10-04T06:06:49.029Z,2722.00
2017-10-04T06:07:02.913Z,2763.00
2017-10-04T06:07:11.136Z,2782.00
2017-10-04T06:07:19.266Z,2798.00
2017-10-04T06:07:27.601Z,2810.00
2017-10-04T06:07:35.557Z,2826.00
2017-10-04T06:07:43.689Z,2836.00
2017-10-04T06:07:51.825Z,2845.00
2017-10-04T06:07:59.959Z,2857.00
2017-10-04T06:08:24.089Z,2880.00
2017-10-04T06:08:32.226Z,2882.00
2017-10-04T06:08:40.376Z,2886.00
2017-10-04T06:08:48.513Z,2881.00
2017-10-04T06:08:56.645Z,2880.00
2017-10-04T06:09:04.773Z,2875.00
2017-10-04T06:09:13.116Z,2866.00
2017-10-04T06:09:21.053Z,2858.00
2017-10-04T06:09:29.205Z,2853.00
2017-10-04T06:09:37.336Z,2845.00
2017-10-04T06:09:45.472Z,2840.00
2017-10-04T06:09:53.611Z,2837.00
2017-10-04T06:10:01.737Z,2831.00
2017-10-04T06:10:09.881Z,2830.00
2017-10-04T06:10:22.777Z,2827.00
2017-10-04T06:10:31.995Z,2830.00
2017-10-04T06:10:46.521Z,2835.00
2017-10-04T06:10:54.670Z,2839.00
2017-10-04T06:11:02.805Z,2844.00
2017-10-04T06:11:11.009Z,2853.00
2017-10-04T06:11:19.069Z,2864.00
2017-10-04T06:11:27.209Z,2874.00
2017-10-04T06:11:35.350Z,2885.00
2017-10-04T06:11:43.485Z,2895.00
2017-10-04T06:11:51.633Z,2906.00
2017-10-04T06:11:59.753Z,2921.00
2017-10-04T06:12:07.897Z,2935.00
2017-10-04T06:12:16.037Z,2946.00
2017-10-04T06:12:24.173Z,2964.00
2017-10-04T06:12:32.301Z,2976.00
2017-10-04T06:12:40.457Z,2996.00
2017-10-04T06:12:48.591Z,3014.00
2017-10-04T06:12:56.722Z,3036.00
2017-10-04T06:13:04.874Z,3057.00
2017-10-04T06:13:13.016Z,3078.00
2017-10-04T06:13:21.129Z,3099.00
2017-10-04T06:13:29.287Z,3119.00
2017-10-04T06:13:37.453Z,3144.00
2017-10-04T06:13:51.310Z,3187.00
2017-10-04T06:13:59.506Z,3218.00
2017-10-04T06:14:15.398Z,3286.00
2017-10-04T06:14:23.225Z,3313.00
2017-10-04T06:14:31.361Z,3340.00
2017-10-04T06:14:39.481Z,3369.00
2017-10-04T06:14:47.639Z,3400.00
2017-10-04T06:14:55.779Z,3433.00
2017-10-04T06:15:03.910Z,3464.00
2017-10-04T06:15:12.054Z,3503.00
2017-10-04T06:15:20.173Z,3544.00
2017-10-04T06:15:28.313Z,3582.00
2017-10-04T06:15:36.453Z,3625.00
2017-10-04T06:15:44.585Z,3670.00
2017-10-04T06:15:52.729Z,3715.00
2017-10-04T06:16:00.877Z,3767.00
2017-10-04T06:16:09.194Z,3817.00
2017-10-04T06:16:17.141Z,3868.00
2017-10-04T06:16:25.276Z,3925.00
2017-10-04T06:16:33.409Z,3980.00
2017-10-04T06:16:41.560Z,4034.00
2017-10-04T06:16:49.701Z,4091.00
2017-10-04T06:17:04.589Z,4197.00
2017-10-04T06:17:11.790Z,4250.00
2017-10-04T06:17:19.929Z,4315.00
2017-10-04T06:17:28.074Z,4378.00
2017-10-04T06:17:36.209Z,4441.00
2017-10-04T06:17:44.344Z,4500.00
2017-10-04T06:17:52.493Z,4563.00
2017-10-04T06:18:00.613Z,4626.00
2017-10-04T06:18:08.763Z,4683.00
2017-10-04T06:18:16.898Z,4746.00
2017-10-04T06:18:25.025Z,4811.00
2017-10-04T06:18:33.177Z,4879.00
2017-10-04T06:18:41.321Z,4941.00
2017-10-04T06:18:49.440Z,5008.00
2017-10-04T06:18:57.584Z,5065.00
2017-10-04T06:19:05.725Z,5125.00
2017-10-04T06:19:13.854Z,5188.00
2017-10-04T06:19:22.005Z,5245.00
2017-10-04T06:19:30.143Z,5301.00
2017-10-04T06:19:38.280Z,5364.00
2017-10-04T06:19:46.405Z,5424.00
2017-10-04T06:19:54.549Z,5485.00
2017-10-04T06:20:02.681Z,5545.00
2017-10-04T06:20:22.018Z,5696.00
2017-10-04T06:20:30.153Z,5759.00
2017-10-04T06:20:42.592Z,5853.00
2017-10-04T06:20:50.662Z,5919.00
2017-10-04T06:20:58.805Z,5978.00
2017-10-04T06:21:06.938Z,6037.00
2017-10-04T06:21:15.077Z,6098.00
2017-10-04T06:21:23.210Z,6158.00
2017-10-04T06:21:44.346Z,6310.00
2017-10-04T06:21:52.280Z,6371.00
2017-10-04T06:22:08.429Z,6483.00
2017-10-04T06:22:18.161Z,6548.00
2017-10-04T06:22:26.305Z,6603.00
2017-10-04T06:22:43.401Z,6707.00
2017-10-04T06:22:51.605Z,6760.00
2017-10-04T06:22:59.733Z,6812.00
2017-10-04T06:23:07.882Z,6864.00
2017-10-04T06:23:16.260Z,6913.00
2017-10-04T06:23:24.161Z,6964.00
2017-10-04T06:23:32.300Z,7016.00
2017-10-04T06:23:40.430Z,7062.00
2017-10-04T06:23:54.325Z,7145.00
2017-10-04T06:24:09.874Z,7228.00
2017-10-04T06:24:18.113Z,7268.00
2017-10-04T06:24:26.261Z,7319.00
2017-10-04T06:24:34.378Z,7359.00
2017-10-04T06:24:42.514Z,7401.00
2017-10-04T06:24:53.906Z,7451.00
2017-10-04T06:25:01.414Z,7485.00
2017-10-04T06:25:09.549Z,7520.00
2017-10-04T06:25:22.633Z,7567.00
2017-10-04T06:25:30.053Z,7600.00
2017-10-04T06:25:53.738Z,7685.00
2017-10-04T06:26:01.802Z,7711.00
2017-10-04T06:26:10.317Z,7746.00
2017-10-04T06:26:25.329Z,7790.00
2017-10-04T06:26:33.620Z,7812.00
2017-10-04T06:26:41.760Z,7826.00
2017-10-04T06:26:53.138Z,7823.00
2017-10-04T06:27:05.461Z,7822.00
2017-10-04T06:27:27.072Z,7807.00
2017-10-04T06:27:34.249Z,7796.00
2017-10-04T06:27:42.385Z,7773.00
2017-10-04T06:27:50.527Z,7748.00
2017-10-04T06:27:58.645Z,7715.00
2017-10-04T06:28:06.802Z,7686.00
2017-10-04T06:28:14.948Z,7644.00
2017-10-04T06:28:23.086Z,7597.00
2017-10-04T06:28:31.209Z,7544.00
2017-10-04T06:28:39.354Z,7495.00
2017-10-04T06:28:47.474Z,7434.00
2017-10-04T06:28:55.628Z,7373.00
2017-10-04T06:29:10.496Z,7255.00
2017-10-04T06:29:25.714Z,7137.00
2017-10-04T06:29:57.875Z,6895.00
2017-10-04T06:30:27.845Z,6665.00
2017-10-04T06:30:51.974Z,6493.00
2017-10-04T06:31:03.301Z,6418.00
2017-10-04T06:31:11.443Z,6371.00
2017-10-04T06:31:21.178Z,6320.00
2017-10-04T06:31:32.718Z,6258.00
2017-10-04T06:31:45.649Z,6192.00
2017-10-04T06:32:01.597Z,6116.00
2017-10-04T06:32:09.724Z,6088.00
2017-10-04T06:32:17.872Z,6064.00
2017-10-04T06:32:26.003Z,6039.00
2017-10-04T06:32:34.137Z,6016.00
2017-10-04T06:32:50.121Z,5983.00
2017-10-04T06:32:57.846Z,5972.00
2017-10-04T06:33:05.977Z,5960.00
2017-10-04T06:33:17.321Z,5936.00
2017-10-04T06:33:31.876Z,5917.00
2017-10-04T06:33:44.733Z,5902.00
2017-10-04T06:34:01.954Z,5913.00
2017-10-04T06:34:29.298Z,5960.00
2017-10-04T06:34:48.628Z,5965.00
2017-10-04T06:34:56.967Z,5975.00
2017-10-04T06:35:05.246Z,5976.00
2017-10-04T06:35:14.633Z,5982.00
2017-10-04T06:35:22.789Z,5982.00
2017-10-04T06:35:38.923Z,5994.00
2017-10-04T06:35:47.049Z,6000.00
2017-10-04T06:35:55.202Z,6006.00
2017-10-04T06:36:04.921Z,6018.00
2017-10-04T06:36:13.062Z,6040.00
2017-10-04T06:36:21.205Z,6064.00
2017-10-04T06:36:29.345Z,6095.00
2017-10-04T06:36:37.481Z,6125.00
2017-10-04T06:36:52.361Z,6169.00
2017-10-04T06:36:59.602Z,6185.00
2017-10-04T06:37:07.713Z,6212.00
2017-10-04T06:37:21.608Z,6276.00
2017-10-04T06:37:29.826Z,6310.00
2017-10-04T06:37:37.949Z,6335.00
2017-10-04T06:37:46.104Z,6366.00
2017-10-04T06:37:54.250Z,6401.00
2017-10-04T06:38:02.381Z,6441.00
2017-10-04T06:38:10.512Z,6482.00
2017-10-04T06:38:18.650Z,6521.00
2017-10-04T06:38:26.785Z,6562.00
2017-10-04T06:39:34.097Z,6817.00
2017-10-04T06:40:12.521Z,6943.00
2017-10-04T06:40:22.257Z,6984.00
2017-10-04T06:40:33.609Z,7040.00
2017-10-04T06:40:43.979Z,7101.00
2017-10-04T06:40:51.477Z,7151.00
2017-10-04T06:41:05.353Z,7234.00
2017-10-04T06:41:13.581Z,7277.00
2017-10-04T06:41:21.716Z,7312.00
2017-10-04T06:41:33.054Z,7350.00
2017-10-04T06:41:42.789Z,7366.00
2017-10-04T06:42:02.125Z,7338.00
2017-10-04T06:42:27.865Z,7197.00
2017-10-04T06:42:47.198Z,7085.00
2017-10-04T06:43:03.534Z,7015.00
2017-10-04T06:43:32.277Z,6948.00
2017-10-04T06:44:23.621Z,6853.00
2017-10-04T06:45:00.569Z,6821.00
2017-10-04T06:45:08.872Z,6808.00
2017-10-04T06:45:16.842Z,6798.00
2017-10-04T06:45:24.967Z,6778.00
2017-10-04T06:45:37.533Z,6706.00
2017-10-04T06:45:50.233Z,6646.00
2017-10-04T06:45:57.834Z,6621.00
2017-10-04T06:46:05.974Z,6590.00
2017-10-04T06:46:14.115Z,6564.00
2017-10-04T06:46:22.245Z,6539.00
2017-10-04T06:46:30.381Z,6512.00
2017-10-04T06:47:05.720Z,6468.00
2017-10-04T06:47:14.061Z,6471.00
2017-10-04T06:47:21.997Z,6484.00
2017-10-04T06:47:33.353Z,6494.00
2017-10-04T06:47:44.678Z,6482.00
2017-10-04T06:47:52.821Z,6478.00
2017-10-04T06:48:00.950Z,6472.00
2017-10-04T06:49:07.761Z,6376.00
2017-10-04T06:49:46.697Z,6330.00
2017-10-04T06:50:01.229Z,6315.00
2017-10-04T07:13:13.077Z,6418.00
2017-10-04T07:14:07.713Z,6332.00
2017-10-04T07:14:27.954Z,6262.00
2017-10-04T07:15:02.477Z,6113.00
2017-10-04T07:15:22.161Z,6007.00
2017-10-04T07:16:00.673Z,5789.00
2017-10-04T07:16:10.449Z,5734.00
2017-10-04T07:17:35.314Z,5488.00
2017-10-04T07:18:30.121Z,5411.00
2017-10-04T07:18:38.894Z,5400.00
2017-10-04T07:19:06.306Z,5376.00
2017-10-04T07:19:34.983Z,5327.00
2017-10-04T07:20:34.303Z,5222.00
2017-10-04T07:21:20.802Z,5232.00
2017-10-04T07:21:34.995Z,5261.00
2017-10-04T07:21:45.674Z,5299.00
2017-10-04T07:22:01.586Z,5342.00
2017-10-04T07:22:59.127Z,5517.00
2017-10-04T07:23:11.962Z,5534.00
2017-10-04T07:23:19.185Z,5546.00
2017-10-04T07:23:27.541Z,5556.00
2017-10-04T07:23:35.480Z,5553.00
2017-10-04T07:23:43.617Z,5561.00
2017-10-04T07:23:51.733Z,5559.00
2017-10-04T07:24:19.130Z,5515.00
2017-10-04T07:24:29.905Z,5489.00
2017-10-04T07:24:37.417Z,5465.00
2017-10-04T07:24:45.577Z,5426.00
2017-10-04T07:24:53.681Z,5402.00
2017-10-04T07:25:01.830Z,5370.00
2017-10-04T07:25:09.973Z,5336.00
2017-10-04T07:25:18.105Z,5305.00
2017-10-04T07:25:26.241Z,5272.00
2017-10-04T07:25:34.388Z,5238.00
2017-10-04T07:25:49.669Z,5187.00
2017-10-04T07:25:58.094Z,5173.00
2017-10-04T07:26:11.061Z,5158.00
2017-10-04T07:26:27.901Z,5142.00
2017-10-04T07:27:06.456Z,5149.00
2017-10-04T07:27:24.861Z,5158.00
2017-10-04T07:27:47.224Z,5211.00
2017-10-04T07:27:58.397Z,5239.00
2017-10-04T07:28:13.609Z,5287.00
2017-10-04T07:28:22.393Z,5326.00
2017-10-04T07:28:30.730Z,5364.00
2017-10-04T07:28:38.660Z,5405.00
2017-10-04T07:28:52.553Z,5480.00
2017-10-04T07:29:00.761Z,5535.00
2017-10-04T07:29:08.901Z,5593.00
2017-10-04T07:29:18.629Z,5667.00
2017-10-04T07:30:08.379Z,6138.00
2017-10-04T07:30:16.516Z,6228.00
2017-10-04T07:30:24.641Z,6319.00
2017-10-04T07:30:32.786Z,6407.00
2017-10-04T07:30:40.938Z,6490.00
2017-10-04T07:30:49.073Z,6587.00
2017-10-04T07:30:57.205Z,6681.00
2017-10-04T07:31:05.337Z,6770.00
2017-10-04T07:31:13.464Z,6880.00
2017-10-04T07:32:04.815Z,7454.00
2017-10-04T07:32:14.550Z,7593.00
2017-10-04T07:32:25.893Z,7759.00
2017-10-04T07:32:36.226Z,7879.00
2017-10-04T07:32:45.385Z,8016.00
2017-10-04T07:33:36.897Z,8862.00
2017-10-04T07:34:04.037Z,9194.00
2017-10-04T07:34:22.134Z,9451.00
2017-10-04T07:34:30.948Z,9612.00
2017-10-04T07:34:39.090Z,9763.00
2017-10-04T07:34:53.961Z,10056.00
2017-10-04T07:35:01.205Z,10166.00
2017-10-04T07:35:09.321Z,10273.00
2017-10-04T07:35:17.469Z,10378.00
2017-10-04T07:35:25.597Z,10504.00
2017-10-04T07:35:33.742Z,10673.00
2017-10-04T07:35:41.886Z,10835.00
2017-10-04T07:35:55.757Z,11070.00
2017-10-04T07:36:27.988Z,11663.00
2017-10-04T07:36:36.132Z,11842.00
2017-10-04T07:36:56.011Z,12248.00
2017-10-04T07:37:04.609Z,12390.00
2017-10-04T07:37:12.770Z,12490.00
2017-10-04T07:37:20.896Z,12549.00
2017-10-04T07:37:29.042Z,12596.00
2017-10-04T07:37:45.169Z,12717.00
2017-10-04T07:37:54.919Z,12816.00
2017-10-04T07:38:06.822Z,13016.00
2017-10-04T07:38:20.297Z,13280.00
2017-10-04T07:38:27.777Z,13425.00
2017-10-04T07:38:40.725Z,13643.00
2017-10-04T07:38:57.197Z,13772.00
2017-10-04T07:39:04.425Z,13796.00
2017-10-04T07:39:12.570Z,13850.00
2017-10-04T07:39:28.459Z,14005.00
2017-10-04T07:39:36.446Z,14084.00
2017-10-04T07:39:44.401Z,14184.00
2017-10-04T07:39:55.730Z,14382.00
2017-10-04T07:40:29.670Z,15158.00
2017-10-04T07:40:37.726Z,15331.00
2017-10-04T07:40:50.570Z,15507.00
2017-10-04T07:41:27.877Z,15539.00
2017-10-04T07:41:42.021Z,15399.00
2017-10-04T07:41:50.157Z,15384.00